Polaris — JD2797 — position and weather

sailwx.info

Track history (hours):
 
Tides and Currents Weather Stations Pressure Air Temp Water Temp Dewpoint Dewpoint Depression Visibility Wind Speed Wind Dir Waves Ship Positions

Polaris

Last reported at 2016-Sep-26 00:18 UTC. Time now 2016-Sep-27 12:07 UTC.
Position N 35°27' E 139°40'.

Length 30 m; draft 2.6 m.

Type: Pilot. MMSI: 431000764.

Date/timePositionNaut miles runAvg speedWind from/ knotsBaromVisibWave heightAir tempDewpointWater temp
2016-Sep-26 00:18N 35°27' E 139°40'4 1.6
2016-Sep-25 21:34N 35°23' E 139°42'4 1.1
2016-Sep-25 17:33N 35°27' E 139°40'0 0.0
2016-Sep-25 16:33N 35°27' E 139°40'0 0.0
2016-Sep-25 15:33N 35°27' E 139°40'0 0.0
2016-Sep-25 14:33N 35°27' E 139°40'0 0.0
2016-Sep-25 12:33N 35°27' E 139°40'0 0.0
2016-Sep-25 11:33N 35°27' E 139°40'0 0.0
2016-Sep-25 10:33N 35°27' E 139°40'0 0.0
2016-Sep-25 09:33N 35°27' E 139°40'6 3.0
2016-Sep-25 07:33N 35°24' E 139°46'8 2.5
2016-Sep-25 04:33N 35°19' E 139°39'0 0.0
2016-Sep-25 00:33N 35°19' E 139°39'9 4.4
2016-Sep-24 22:32N 35°12' E 139°46'1312.8
2016-Sep-24 21:33N 35°25' E 139°43'3 1.6
2016-Sep-24 19:33N 35°27' E 139°40'0 0.0
2016-Sep-23 04:18N 35°27' E 139°40'810.5
2016-Sep-23 03:33N 35°19' E 139°42'2 2.1
2016-Sep-23 02:33N 35°18' E 139°44'10 9.9
2016-Sep-23 01:33N 35°28' E 139°45'1 1.1
2016-Sep-23 00:33N 35°29' E 139°45'5 4.7
2016-Sep-22 23:33N 35°27' E 139°40'0 0.0
2016-Sep-22 20:33N 35°27' E 139°40'0 0.0
2016-Sep-22 12:33N 35°27' E 139°40'0 0.0
2016-Sep-22 04:33N 35°27' E 139°40'1010.2
2016-Sep-22 03:33N 35°17' E 139°44'10 3.3
2016-Sep-22 00:34N 35°27' E 139°43'3 3.1
2016-Sep-21 23:33N 35°27' E 139°40'0 0.0
2016-Sep-20 07:10N 35°27' E 139°40'5 8.5
2016-Sep-20 06:33N 35°30' E 139°44'2 0.2
2016-Sep-19 23:33N 35°29' E 139°43'3 0.9
2016-Sep-19 19:33N 35°27' E 139°40'0 0.0
2016-Sep-19 18:33N 35°27' E 139°40'0 0.0
2016-Sep-19 16:33N 35°27' E 139°40'0 0.0
2016-Sep-19 14:33N 35°27' E 139°40'0 0.0
2016-Sep-19 13:33N 35°27' E 139°40'0 0.0
2016-Sep-19 12:33N 35°27' E 139°40'0 0.0
2016-Sep-19 11:33N 35°27' E 139°40'0 0.0
2016-Sep-19 09:33N 35°27' E 139°40'0 0.0
2016-Sep-19 07:33N 35°27' E 139°40'0 0.0
2016-Sep-19 06:33N 35°27' E 139°40'0 0.0
2016-Sep-19 03:33N 35°27' E 139°40'0 0.0
2016-Sep-19 02:33N 35°27' E 139°40'0 0.0
2016-Sep-19 00:33N 35°27' E 139°40'16 3.1
2016-Sep-18 19:30N 35°12' E 139°47'16 0.4
2016-Sep-17 07:34N 35°27' E 139°40'16 8.2
2016-Sep-17 05:33N 35°12' E 139°46'10 9.7
2016-Sep-17 04:33N 35°19' E 139°39'5 1.3
2016-Sep-17 00:33N 35°16' E 139°45'  
Track history (hours):
 
Tides and Currents Weather Stations Pressure Air Temp Water Temp Dewpoint Dewpoint Depression Visibility Wind Speed Wind Dir Waves Ship Positions

Polaris

Last reported at 2016-Sep-26 00:18 UTC. Time now 2016-Sep-27 12:07 UTC.
Position N 35°27' E 139°40'.

Length 30 m; draft 2.6 m.

Type: Pilot. MMSI: 431000764.

Date/timePositionNaut miles runAvg speedWind from/ knotsBaromVisibWave heightAir tempDewpointWater temp
2016-Sep-26 00:18N 35°27' E 139°40'4 1.6
2016-Sep-25 21:34N 35°23' E 139°42'4 1.1
2016-Sep-25 17:33N 35°27' E 139°40'0 0.0
2016-Sep-25 16:33N 35°27' E 139°40'0 0.0
2016-Sep-25 15:33N 35°27' E 139°40'0 0.0
2016-Sep-25 14:33N 35°27' E 139°40'0 0.0
2016-Sep-25 12:33N 35°27' E 139°40'0 0.0
2016-Sep-25 11:33N 35°27' E 139°40'0 0.0
2016-Sep-25 10:33N 35°27' E 139°40'0 0.0
2016-Sep-25 09:33N 35°27' E 139°40'6 3.0
2016-Sep-25 07:33N 35°24' E 139°46'8 2.5
2016-Sep-25 04:33N 35°19' E 139°39'0 0.0
2016-Sep-25 00:33N 35°19' E 139°39'9 4.4
2016-Sep-24 22:32N 35°12' E 139°46'1312.8
2016-Sep-24 21:33N 35°25' E 139°43'3 1.6
2016-Sep-24 19:33N 35°27' E 139°40'0 0.0
2016-Sep-23 04:18N 35°27' E 139°40'810.5
2016-Sep-23 03:33N 35°19' E 139°42'2 2.1
2016-Sep-23 02:33N 35°18' E 139°44'10 9.9
2016-Sep-23 01:33N 35°28' E 139°45'1 1.1
2016-Sep-23 00:33N 35°29' E 139°45'5 4.7
2016-Sep-22 23:33N 35°27' E 139°40'0 0.0
2016-Sep-22 20:33N 35°27' E 139°40'0 0.0
2016-Sep-22 12:33N 35°27' E 139°40'0 0.0
2016-Sep-22 04:33N 35°27' E 139°40'1010.2
2016-Sep-22 03:33N 35°17' E 139°44'10 3.3
2016-Sep-22 00:34N 35°27' E 139°43'3 3.1
2016-Sep-21 23:33N 35°27' E 139°40'0 0.0
2016-Sep-20 07:10N 35°27' E 139°40'5 8.5
2016-Sep-20 06:33N 35°30' E 139°44'2 0.2
2016-Sep-19 23:33N 35°29' E 139°43'3 0.9
2016-Sep-19 19:33N 35°27' E 139°40'0 0.0
2016-Sep-19 18:33N 35°27' E 139°40'0 0.0
2016-Sep-19 16:33N 35°27' E 139°40'0 0.0
2016-Sep-19 14:33N 35°27' E 139°40'0 0.0
2016-Sep-19 13:33N 35°27' E 139°40'0 0.0
2016-Sep-19 12:33N 35°27' E 139°40'0 0.0
2016-Sep-19 11:33N 35°27' E 139°40'0 0.0
2016-Sep-19 09:33N 35°27' E 139°40'0 0.0
2016-Sep-19 07:33N 35°27' E 139°40'0 0.0
2016-Sep-19 06:33N 35°27' E 139°40'0 0.0
2016-Sep-19 03:33N 35°27' E 139°40'0 0.0
2016-Sep-19 02:33N 35°27' E 139°40'0 0.0
2016-Sep-19 00:33N 35°27' E 139°40'16 3.1
2016-Sep-18 19:30N 35°12' E 139°47'16 0.4
2016-Sep-17 07:34N 35°27' E 139°40'16 8.2
2016-Sep-17 05:33N 35°12' E 139°46'10 9.7
2016-Sep-17 04:33N 35°19' E 139°39'5 1.3
2016-Sep-17 00:33N 35°16' E 139°45'  

Dump ship's entire track history